Terminal Aerodrome Forecast
Issued by NWS

Home | Current Version | Previous Version | Graphics & Text | Print | Product List | Glossary On
Versions: 1 2 3 4 5 6 7 8 9 10 11 12 13 14 15 16 17
364
FTUS43 KBIS 211824 RRA
TAFDIK
TAF
KDIK 211824Z 2118/2218 30020G30KT P6SM SKC
     FM220000 32015G22KT P6SM SKC
     FM220200 35008KT P6SM FEW120 FEW250
     FM220400 VRB05KT P6SM FEW120 SCT250
     FM220800 23007KT P6SM FEW110 SCT150
     FM221000 26008KT P6SM FEW100 SCT150
     FM221500 30016G24KT P6SM SKC=

USA.gov is the U.S. government's official web portal to all federal, state and local government web resources and services.